createdAt,value
2017-07-27T00:01:15.849Z,7.30
2017-07-27T00:03:44.138Z,7.73
2017-07-27T00:06:11.695Z,7.33
2017-07-27T00:08:39.228Z,7.67
2017-07-27T00:11:06.726Z,8.07
2017-07-27T00:13:34.232Z,7.43
2017-07-27T00:16:01.756Z,7.43
2017-07-27T00:18:29.265Z,8.30
2017-07-27T00:20:57.555Z,7.03
2017-07-27T00:23:25.823Z,7.57
2017-07-27T00:25:53.352Z,7.30
2017-07-27T00:28:20.855Z,7.70
2017-07-27T00:30:48.350Z,8.60
2017-07-27T00:33:15.872Z,8.37
2017-07-27T00:35:43.366Z,7.00
2017-07-27T00:38:10.892Z,7.70
2017-07-27T00:40:38.392Z,8.30
2017-07-27T00:43:05.916Z,7.57
2017-07-27T00:45:33.427Z,7.93
2017-07-27T00:48:00.962Z,6.70
2017-07-27T00:50:28.462Z,8.00
2017-07-27T00:52:56.730Z,6.83
2017-07-27T00:55:24.258Z,6.83
2017-07-27T00:57:51.769Z,7.07
2017-07-27T01:00:19.295Z,7.00
2017-07-27T01:02:46.798Z,7.20
2017-07-27T01:05:14.323Z,7.10
2017-07-27T01:07:42.598Z,7.50
2017-07-27T01:10:10.921Z,7.33
2017-07-27T01:12:38.427Z,8.20
2017-07-27T01:15:05.951Z,7.20
2017-07-27T01:17:33.483Z,7.80
2017-07-27T01:20:00.990Z,6.83
2017-07-27T01:22:28.507Z,7.83
2017-07-27T01:24:56.016Z,7.20
2017-07-27T01:27:23.538Z,6.53
2017-07-27T01:29:51.039Z,6.77
2017-07-27T01:32:19.307Z,7.47
2017-07-27T01:34:46.822Z,6.73
2017-07-27T01:37:14.349Z,7.10
2017-07-27T01:39:41.905Z,6.93
2017-07-27T01:42:10.171Z,6.57
2017-07-27T01:44:37.690Z,8.10
2017-07-27T01:47:05.190Z,6.87
2017-07-27T01:49:33.467Z,7.47
2017-07-27T01:52:01.755Z,7.30
2017-07-27T01:54:30.024Z,6.73
2017-07-27T01:56:58.314Z,6.23
2017-07-27T01:59:25.831Z,7.57
2017-07-27T02:01:53.346Z,7.40
2017-07-27T02:04:20.910Z,6.83
2017-07-27T02:06:48.411Z,7.70
2017-07-27T02:09:15.934Z,6.60
2017-07-27T02:11:43.435Z,6.37
2017-07-27T02:14:10.982Z,7.00
2017-07-27T02:16:38.496Z,6.50
2017-07-27T02:19:06.023Z,6.80
2017-07-27T02:21:34.296Z,5.97
2017-07-27T02:24:02.562Z,5.73
2017-07-27T02:26:30.857Z,7.77
2017-07-27T02:28:58.360Z,6.50
2017-07-27T02:31:25.879Z,6.30
2017-07-27T02:33:53.635Z,6.60
2017-07-27T02:36:21.913Z,5.90
2017-07-27T02:38:49.416Z,6.17
2017-07-27T02:41:16.927Z,7.00
2017-07-27T02:43:45.206Z,6.60
2017-07-27T02:46:13.479Z,6.50
2017-07-27T02:48:41.759Z,6.50
2017-07-27T02:51:10.027Z,6.07
2017-07-27T02:53:38.315Z,5.90
2017-07-27T02:56:05.816Z,5.87
2017-07-27T02:58:33.342Z,6.50
2017-07-27T03:01:00.859Z,6.07
2017-07-27T03:03:28.368Z,5.70
2017-07-27T03:05:55.886Z,5.57
2017-07-27T03:08:23.392Z,6.47
2017-07-27T03:10:50.921Z,6.20
2017-07-27T03:13:18.423Z,5.80
2017-07-27T03:15:45.940Z,6.23
2017-07-27T03:18:13.434Z,6.20
2017-07-27T03:20:40.959Z,5.67
2017-07-27T03:23:08.465Z,5.70
2017-07-27T03:25:35.962Z,6.10
2017-07-27T03:28:04.242Z,5.73
2017-07-27T03:30:32.512Z,5.10
2017-07-27T03:33:00.804Z,5.37
2017-07-27T03:35:28.306Z,5.90
2017-07-27T03:37:55.815Z,5.30
2017-07-27T03:40:23.322Z,4.90
2017-07-27T03:42:50.839Z,5.30
2017-07-27T03:45:18.342Z,5.73
2017-07-27T03:47:45.850Z,5.63
2017-07-27T03:50:13.371Z,4.73
2017-07-27T03:52:40.867Z,5.30
2017-07-27T03:55:08.391Z,5.40
2017-07-27T03:57:35.887Z,5.10
2017-07-27T04:00:03.404Z,5.57
2017-07-27T04:02:30.906Z,5.73
2017-07-27T04:04:58.422Z,5.67
2017-07-27T04:07:25.927Z,5.23
2017-07-27T04:09:53.431Z,5.60
2017-07-27T04:12:20.959Z,5.67
2017-07-27T04:14:48.467Z,5.10
2017-07-27T04:17:16.748Z,5.20
2017-07-27T04:19:45.027Z,5.43
2017-07-27T04:22:13.306Z,5.17
2017-07-27T04:24:41.571Z,5.77
2017-07-27T04:27:09.870Z,5.87
2017-07-27T04:29:37.369Z,4.50
2017-07-27T04:32:04.911Z,4.97
2017-07-27T04:34:32.406Z,6.10
2017-07-27T04:36:59.898Z,5.17
2017-07-27T04:39:27.426Z,5.30
2017-07-27T04:41:54.924Z,6.80
2017-07-27T04:44:22.434Z,5.73
2017-07-27T04:46:49.937Z,5.43
2017-07-27T04:49:17.464Z,5.33
2017-07-27T04:51:44.967Z,5.60
2017-07-27T04:54:12.521Z,5.33
2017-07-27T04:56:40.023Z,5.10
2017-07-27T04:59:07.526Z,4.83
2017-07-27T05:01:35.040Z,5.10
2017-07-27T05:04:02.564Z,5.20
2017-07-27T05:06:30.083Z,4.80
2017-07-27T05:08:58.350Z,5.30
2017-07-27T05:11:26.639Z,4.67
2017-07-27T05:13:54.147Z,5.00
2017-07-27T05:16:21.688Z,4.73
2017-07-27T05:18:50.015Z,5.20
2017-07-27T05:21:17.522Z,4.40
2017-07-27T05:23:45.037Z,5.00
2017-07-27T05:26:13.305Z,3.83
2017-07-27T05:28:40.832Z,4.30
2017-07-27T05:31:08.330Z,4.00
2017-07-27T05:33:36.622Z,3.83
2017-07-27T05:36:04.886Z,3.90
2017-07-27T05:38:32.408Z,3.73
2017-07-27T05:40:59.910Z,3.60
2017-07-27T05:43:27.415Z,4.07
2017-07-27T05:45:54.939Z,3.83
2017-07-27T05:48:22.439Z,4.20
2017-07-27T05:50:49.963Z,4.20
2017-07-27T05:53:17.476Z,4.50
2017-07-27T05:55:45.003Z,4.03
2017-07-27T05:58:12.508Z,3.87
2017-07-27T06:00:40.039Z,4.43
2017-07-27T06:03:07.543Z,3.90
2017-07-27T06:05:35.060Z,4.30
2017-07-27T06:08:02.580Z,4.20
2017-07-27T06:10:30.084Z,4.60
2017-07-27T06:12:57.608Z,3.67
2017-07-27T06:15:25.125Z,4.03
2017-07-27T06:17:52.651Z,4.00
2017-07-27T06:20:20.147Z,3.90
2017-07-27T06:22:47.663Z,3.57
2017-07-27T06:25:15.162Z,4.10
2017-07-27T06:27:43.427Z,3.43
2017-07-27T06:30:11.716Z,3.60
2017-07-27T06:32:39.214Z,3.50
2017-07-27T06:35:06.739Z,3.93
2017-07-27T06:37:34.239Z,3.40
2017-07-27T06:40:01.760Z,3.80
2017-07-27T06:42:29.259Z,4.20
2017-07-27T06:44:56.772Z,3.67
2017-07-27T06:47:24.279Z,4.27
2017-07-27T06:49:51.774Z,3.73
2017-07-27T06:52:19.296Z,3.77
2017-07-27T06:54:46.796Z,3.50
2017-07-27T06:57:14.310Z,3.73
2017-07-27T06:59:41.811Z,4.10
2017-07-27T07:02:09.326Z,3.90
2017-07-27T07:04:36.823Z,3.97
2017-07-27T07:07:04.342Z,3.90
2017-07-27T07:09:31.838Z,3.87
2017-07-27T07:11:59.334Z,3.80
2017-07-27T07:14:26.851Z,4.80
2017-07-27T07:16:54.354Z,3.67
2017-07-27T07:19:21.876Z,10.47
2017-07-27T07:21:49.378Z,4.57
2017-07-27T07:24:16.900Z,4.37
2017-07-27T07:26:44.424Z,8.13
2017-07-27T07:29:12.717Z,4.93
2017-07-27T07:31:40.220Z,3.60
2017-07-27T07:34:07.721Z,3.43
2017-07-27T07:36:35.235Z,3.80
2017-07-27T07:39:02.734Z,3.50
2017-07-27T07:41:30.243Z,3.23
2017-07-27T07:43:57.755Z,3.43
2017-07-27T07:46:26.049Z,4.87
2017-07-27T07:48:53.547Z,3.37
2017-07-27T07:51:21.068Z,3.23
2017-07-27T07:53:48.567Z,4.00
2017-07-27T07:56:16.078Z,2.60
2017-07-27T07:58:44.369Z,4.00
2017-07-27T08:01:11.873Z,3.80
2017-07-27T08:03:39.387Z,3.67
2017-07-27T08:06:06.877Z,3.80
2017-07-27T08:08:49.270Z,3.23
2017-07-27T08:11:16.767Z,2.90
2017-07-27T08:13:44.302Z,3.63
2017-07-27T08:16:11.803Z,3.10
2017-07-27T08:18:39.313Z,2.63
2017-07-27T08:21:06.828Z,3.20
2017-07-27T08:23:35.099Z,3.63
2017-07-27T08:26:02.619Z,2.93
2017-07-27T08:28:30.119Z,3.27
2017-07-27T08:30:57.643Z,3.00
2017-07-27T08:33:25.143Z,2.80
2017-07-27T08:35:52.662Z,2.93
2017-07-27T08:38:20.164Z,4.30
2017-07-27T08:40:47.658Z,6.13
2017-07-27T08:43:15.168Z,4.73
2017-07-27T08:45:42.674Z,8.23
2017-07-27T08:48:10.191Z,4.77
2017-07-27T08:50:37.693Z,8.00
2017-07-27T08:53:05.210Z,3.30
2017-07-27T08:55:32.711Z,5.20
2017-07-27T08:58:00.246Z,4.10
2017-07-27T09:00:27.747Z,4.27
2017-07-27T09:02:55.243Z,3.20
2017-07-27T09:05:22.776Z,3.80
2017-07-27T09:07:51.048Z,3.47
2017-07-27T09:10:18.558Z,3.10
2017-07-27T09:12:46.062Z,3.30
2017-07-27T09:15:13.578Z,3.40
2017-07-27T09:17:41.071Z,3.60
2017-07-27T09:20:08.611Z,3.47
2017-07-27T09:22:36.120Z,3.47
2017-07-27T09:25:03.631Z,3.33
2017-07-27T09:27:31.159Z,3.67
2017-07-27T09:29:58.659Z,3.83
2017-07-27T09:32:26.178Z,3.43
2017-07-27T09:34:53.680Z,3.20
2017-07-27T09:37:21.194Z,3.20
2017-07-27T09:39:48.698Z,3.37
2017-07-27T09:42:16.220Z,3.47
2017-07-27T09:44:43.723Z,3.80
2017-07-27T09:47:11.986Z,3.80
2017-07-27T09:49:39.498Z,3.37
2017-07-27T09:52:06.996Z,3.00
2017-07-27T09:54:34.507Z,3.20
2017-07-27T09:57:07.543Z,3.43
2017-07-27T09:59:35.055Z,3.33
2017-07-27T10:02:02.555Z,3.13
2017-07-27T10:04:30.108Z,3.80
2017-07-27T10:06:57.611Z,3.40
2017-07-27T10:09:25.118Z,3.20
2017-07-27T10:11:52.626Z,2.83
2017-07-27T10:14:20.126Z,2.80
2017-07-27T10:16:47.643Z,2.97
2017-07-27T10:19:15.911Z,3.33
2017-07-27T10:21:43.435Z,3.20
2017-07-27T10:24:10.950Z,3.37
2017-07-27T10:26:38.499Z,3.40
2017-07-27T10:29:06.006Z,3.40
2017-07-27T10:31:33.511Z,3.50
2017-07-27T10:34:01.039Z,3.97
2017-07-27T10:36:28.539Z,3.93
2017-07-27T10:38:56.054Z,4.10
2017-07-27T10:41:23.559Z,4.20
2017-07-27T10:43:51.079Z,4.20
2017-07-27T10:46:18.579Z,4.10
2017-07-27T10:48:46.116Z,3.40
2017-07-27T10:51:13.623Z,3.50
2017-07-27T10:53:41.123Z,3.50
2017-07-27T10:56:08.646Z,4.20
2017-07-27T10:58:36.142Z,4.60
2017-07-27T11:01:04.431Z,3.93
2017-07-27T11:03:31.926Z,3.37
2017-07-27T11:05:59.447Z,4.20
2017-07-27T11:08:26.943Z,4.10
2017-07-27T11:10:54.468Z,3.93
2017-07-27T11:13:21.977Z,4.70
2017-07-27T11:15:49.476Z,4.00
2017-07-27T11:18:16.999Z,3.90
2017-07-27T11:20:44.502Z,4.53
2017-07-27T11:23:12.018Z,4.07
2017-07-27T11:25:39.518Z,4.10
2017-07-27T11:28:07.055Z,4.57
2017-07-27T11:30:34.550Z,4.53
2017-07-27T11:33:02.071Z,4.73
2017-07-27T11:35:29.562Z,4.30
2017-07-27T11:37:57.062Z,3.70
2017-07-27T11:40:24.571Z,3.77
2017-07-27T11:42:52.070Z,3.60
2017-07-27T11:45:19.589Z,3.60
2017-07-27T11:47:47.155Z,2.97
2017-07-27T11:50:14.679Z,3.73
2017-07-27T11:52:42.951Z,3.63
2017-07-27T11:55:11.248Z,3.30
2017-07-27T11:57:38.746Z,3.63
2017-07-27T12:00:06.246Z,3.30
2017-07-27T12:02:34.539Z,3.53
2017-07-27T12:05:02.039Z,3.13
2017-07-27T12:07:29.558Z,4.03
2017-07-27T12:09:57.073Z,3.83
2017-07-27T12:12:24.591Z,4.07
2017-07-27T12:14:52.092Z,4.00
2017-07-27T12:17:19.626Z,4.20
2017-07-27T12:19:47.123Z,4.23
2017-07-27T12:22:14.619Z,3.50
2017-07-27T12:24:42.131Z,3.70
2017-07-27T12:27:09.631Z,3.40
2017-07-27T12:29:37.152Z,3.80
2017-07-27T12:32:04.642Z,3.90
2017-07-27T12:34:32.173Z,3.50
2017-07-27T12:37:00.441Z,3.30
2017-07-27T12:39:27.975Z,3.30
2017-07-27T12:41:55.479Z,3.40
2017-07-27T12:44:22.978Z,3.27
2017-07-27T12:46:50.507Z,4.43
2017-07-27T12:49:18.019Z,4.10
2017-07-27T12:51:45.537Z,3.73
2017-07-27T12:54:13.029Z,3.50
2017-07-27T12:56:40.544Z,3.40
2017-07-27T12:59:08.054Z,4.13
2017-07-27T13:01:35.580Z,4.10
2017-07-27T13:04:03.075Z,4.07
2017-07-27T13:06:30.576Z,4.13
2017-07-27T13:08:58.087Z,3.97
2017-07-27T13:11:25.586Z,3.70
2017-07-27T13:13:53.102Z,3.90
2017-07-27T13:16:20.612Z,3.60
2017-07-27T13:18:48.131Z,4.00
2017-07-27T13:21:15.633Z,4.17
2017-07-27T13:23:43.151Z,4.00
2017-07-27T13:26:10.652Z,4.17
2017-07-27T13:28:38.148Z,3.87
2017-07-27T13:31:05.666Z,3.90
2017-07-27T13:33:33.163Z,3.80
2017-07-27T13:36:00.703Z,3.50
2017-07-27T13:38:28.195Z,3.50
2017-07-27T13:40:55.711Z,4.40
2017-07-27T13:43:23.209Z,3.70
2017-07-27T13:45:51.507Z,3.30
2017-07-27T13:48:19.006Z,3.50
2017-07-27T13:50:46.503Z,3.63
2017-07-27T13:53:14.783Z,3.80
2017-07-27T13:55:43.048Z,3.40
2017-07-27T13:58:10.559Z,3.00
2017-07-27T14:00:38.074Z,3.50
2017-07-27T14:03:06.359Z,3.23
2017-07-27T14:05:34.632Z,3.40
2017-07-27T14:08:02.931Z,3.60
2017-07-27T14:10:30.434Z,3.40
2017-07-27T14:12:57.931Z,3.60
2017-07-27T14:15:25.456Z,3.57
2017-07-27T14:17:52.954Z,3.00
2017-07-27T14:20:20.475Z,3.60
2017-07-27T14:22:47.970Z,3.93
2017-07-27T14:25:15.494Z,3.10
2017-07-27T14:27:43.002Z,3.60
2017-07-27T14:30:10.546Z,3.07
2017-07-27T14:32:38.052Z,3.43
2017-07-27T14:35:05.547Z,3.27
2017-07-27T14:37:33.823Z,3.30
2017-07-27T14:40:02.910Z,2.80
2017-07-27T14:42:31.190Z,3.53
2017-07-27T14:44:58.688Z,3.10
2017-07-27T14:47:26.198Z,3.40
2017-07-27T14:49:53.694Z,3.00
2017-07-27T14:52:21.234Z,3.27
2017-07-27T14:54:48.737Z,3.30
2017-07-27T14:57:16.235Z,3.10
2017-07-27T14:59:44.522Z,3.27
2017-07-27T15:02:12.017Z,3.20
2017-07-27T15:04:39.538Z,3.07
2017-07-27T15:07:07.038Z,3.37
2017-07-27T15:09:34.565Z,2.93
2017-07-27T15:12:02.069Z,3.27
2017-07-27T15:14:29.611Z,2.90
2017-07-27T15:16:57.121Z,3.13
2017-07-27T15:19:24.631Z,2.80
2017-07-27T15:21:52.151Z,2.90
2017-07-27T15:24:19.645Z,2.70
2017-07-27T15:26:47.156Z,2.60
2017-07-27T15:29:14.663Z,2.77
2017-07-27T15:31:42.188Z,2.73
2017-07-27T15:34:09.682Z,2.57
2017-07-27T15:36:37.199Z,2.70
2017-07-27T15:39:04.712Z,2.50
2017-07-27T15:41:32.211Z,2.33
2017-07-27T15:43:59.729Z,2.50
2017-07-27T15:46:27.242Z,2.73
2017-07-27T15:48:54.759Z,2.37
2017-07-27T15:51:22.256Z,2.13
2017-07-27T15:53:49.776Z,1.97
2017-07-27T15:56:17.271Z,2.30
2017-07-27T15:58:44.796Z,2.40
2017-07-27T16:01:12.296Z,2.27
2017-07-27T16:03:39.797Z,2.10
2017-07-27T16:06:07.325Z,2.60
2017-07-27T16:08:34.826Z,2.20
2017-07-27T16:11:02.342Z,2.30
2017-07-27T16:13:29.847Z,2.20
2017-07-27T16:15:57.367Z,2.10
2017-07-27T16:18:24.867Z,2.30
2017-07-27T16:20:52.413Z,2.33
2017-07-27T16:23:19.918Z,2.23
2017-07-27T16:25:47.414Z,1.87
2017-07-27T16:28:14.926Z,2.10
2017-07-27T16:30:42.430Z,2.50
2017-07-27T16:33:09.940Z,1.93
2017-07-27T16:35:37.442Z,2.43
2017-07-27T16:38:04.951Z,2.20
2017-07-27T16:40:33.217Z,2.47
2017-07-27T16:43:00.759Z,2.03
2017-07-27T16:45:28.258Z,1.93
2017-07-27T16:47:55.765Z,2.57
2017-07-27T16:50:23.278Z,2.30
2017-07-27T16:52:50.779Z,2.10
2017-07-27T16:55:18.290Z,2.10
2017-07-27T16:57:45.795Z,2.90
2017-07-27T17:00:13.310Z,2.33
2017-07-27T17:02:40.823Z,2.67
2017-07-27T17:05:08.343Z,2.20
2017-07-27T17:07:35.883Z,2.40
2017-07-27T17:10:03.392Z,2.17
2017-07-27T17:12:30.908Z,2.47
2017-07-27T17:14:58.454Z,2.20
2017-07-27T17:17:25.967Z,2.50
2017-07-27T17:19:53.463Z,2.53
2017-07-27T17:22:20.987Z,2.43
2017-07-27T17:24:48.489Z,2.07
2017-07-27T17:27:16.052Z,2.20
2017-07-27T17:29:43.546Z,2.20
2017-07-27T17:32:11.043Z,2.47
2017-07-27T17:34:38.636Z,2.13
2017-07-27T17:37:06.139Z,2.40
2017-07-27T17:39:33.658Z,2.77
2017-07-27T17:42:01.152Z,2.30
2017-07-27T17:44:28.682Z,1.77
2017-07-27T17:46:56.179Z,2.50
2017-07-27T17:49:23.679Z,2.23
2017-07-27T17:51:51.193Z,2.27
2017-07-27T17:54:18.698Z,2.20
2017-07-27T17:56:46.217Z,2.70
2017-07-27T17:59:13.739Z,2.57
2017-07-27T18:01:41.258Z,2.33
2017-07-27T18:04:08.756Z,2.67
2017-07-27T18:06:36.259Z,2.17
2017-07-27T18:09:03.771Z,2.40
2017-07-27T18:11:31.262Z,2.30
2017-07-27T18:13:58.780Z,2.40
2017-07-27T18:16:26.275Z,2.30
2017-07-27T18:18:53.819Z,2.27
2017-07-27T18:21:21.315Z,2.00
2017-07-27T18:23:48.810Z,1.87
2017-07-27T18:26:16.323Z,2.10
2017-07-27T18:28:43.827Z,2.23
2017-07-27T18:31:11.339Z,2.93
2017-07-27T18:33:39.617Z,2.73
2017-07-27T18:36:07.144Z,2.37
2017-07-27T18:38:34.648Z,2.30
2017-07-27T18:41:02.151Z,2.07
2017-07-27T18:43:29.671Z,2.30
2017-07-27T18:45:57.170Z,2.40
2017-07-27T18:48:24.683Z,2.90
2017-07-27T18:50:52.191Z,2.67
2017-07-27T18:53:19.731Z,2.23
2017-07-27T18:55:47.238Z,2.63
2017-07-27T18:58:14.746Z,2.40
2017-07-27T19:00:42.263Z,2.50
2017-07-27T19:03:09.778Z,2.20
2017-07-27T19:05:37.295Z,3.40
2017-07-27T19:08:04.864Z,2.50
2017-07-27T19:10:32.398Z,2.57
2017-07-27T19:12:59.907Z,2.60
2017-07-27T19:15:27.408Z,2.90
2017-07-27T19:17:55.701Z,2.90
2017-07-27T19:20:23.215Z,3.40
2017-07-27T19:22:50.766Z,2.60
2017-07-27T19:25:18.275Z,3.07
2017-07-27T19:27:45.785Z,3.10
2017-07-27T19:30:13.299Z,3.13
2017-07-27T19:32:40.811Z,3.10
2017-07-27T19:35:08.342Z,2.87
2017-07-27T19:37:35.842Z,3.10
2017-07-27T19:40:04.127Z,3.27
2017-07-27T19:42:31.637Z,2.90
2017-07-27T19:44:59.175Z,2.90
2017-07-27T19:47:26.693Z,3.37
2017-07-27T19:49:54.963Z,3.00
2017-07-27T19:52:23.259Z,3.60
2017-07-27T19:54:50.765Z,3.40
2017-07-27T19:57:18.291Z,2.53
2017-07-27T19:59:45.795Z,3.30
2017-07-27T20:02:13.322Z,2.73
2017-07-27T20:04:40.832Z,2.87
2017-07-27T20:07:09.115Z,3.60
2017-07-27T20:09:37.396Z,3.27
2017-07-27T20:12:04.895Z,3.00
2017-07-27T20:14:32.415Z,2.97
2017-07-27T20:16:59.911Z,2.80
2017-07-27T20:19:27.439Z,3.40
2017-07-27T20:21:54.939Z,3.27
2017-07-27T20:24:22.438Z,2.83
2017-07-27T20:26:50.721Z,3.27
2017-07-27T20:29:18.223Z,2.93
2017-07-27T20:31:45.735Z,3.60
2017-07-27T20:34:14.005Z,3.73
2017-07-27T20:36:42.340Z,3.10
2017-07-27T20:39:09.843Z,3.03
2017-07-27T20:41:37.339Z,3.20
2017-07-27T20:44:04.858Z,4.40
2017-07-27T20:46:33.118Z,4.20
2017-07-27T20:49:00.639Z,3.13
2017-07-27T20:51:28.175Z,3.20
2017-07-27T20:53:55.687Z,3.60
2017-07-27T20:56:23.180Z,3.87
2017-07-27T20:58:50.694Z,4.17
2017-07-27T21:01:18.187Z,3.90
2017-07-27T21:03:46.452Z,3.60
2017-07-27T21:06:14.743Z,4.00
2017-07-27T21:08:42.259Z,4.50
2017-07-27T21:11:09.775Z,3.73
2017-07-27T21:13:37.283Z,4.60
2017-07-27T21:16:04.799Z,3.80
2017-07-27T21:18:32.295Z,4.47
2017-07-27T21:20:59.814Z,4.60
2017-07-27T21:23:27.317Z,4.60
2017-07-27T21:25:54.812Z,4.63
2017-07-27T21:28:22.334Z,4.27
2017-07-27T21:30:49.843Z,5.20
2017-07-27T21:33:17.359Z,4.80
2017-07-27T21:35:44.864Z,4.40
2017-07-27T21:38:12.379Z,4.13
2017-07-27T21:40:39.878Z,5.00
2017-07-27T21:43:07.409Z,5.07
2017-07-27T21:45:34.907Z,5.00
2017-07-27T21:48:02.407Z,5.23
2017-07-27T21:50:29.929Z,5.57
2017-07-27T21:52:57.427Z,4.90
2017-07-27T21:55:24.948Z,5.13
2017-07-27T21:57:52.446Z,5.07
2017-07-27T22:00:19.976Z,4.70
2017-07-27T22:02:47.480Z,5.60
2017-07-27T22:05:15.774Z,5.97
2017-07-27T22:07:43.271Z,5.10
2017-07-27T22:10:10.762Z,6.07
2017-07-27T22:12:39.044Z,5.20
2017-07-27T22:15:07.315Z,5.17
2017-07-27T22:17:35.600Z,5.60
2017-07-27T22:20:03.096Z,5.23
2017-07-27T22:22:30.617Z,5.70
2017-07-27T22:24:58.843Z,5.80
2017-07-27T22:27:26.436Z,6.10
2017-07-27T22:29:54.716Z,5.90
2017-07-27T22:32:22.994Z,5.83
2017-07-27T22:34:51.279Z,6.73
2017-07-27T22:37:19.540Z,6.10
2017-07-27T22:39:47.056Z,5.50
2017-07-27T22:42:14.554Z,6.63
2017-07-27T22:44:42.076Z,6.10
2017-07-27T22:47:09.578Z,6.47
2017-07-27T22:49:37.882Z,6.80
2017-07-27T22:52:05.382Z,6.23
2017-07-27T22:54:32.891Z,6.10
2017-07-27T22:57:00.409Z,6.80
2017-07-27T22:59:27.911Z,6.97
2017-07-27T23:01:55.427Z,6.27
2017-07-27T23:04:22.930Z,6.43
2017-07-27T23:06:50.447Z,6.33
2017-07-27T23:09:18.043Z,6.70
2017-07-27T23:11:45.571Z,6.50
2017-07-27T23:14:13.066Z,6.60
2017-07-27T23:16:40.606Z,6.80
2017-07-27T23:19:08.106Z,6.20
2017-07-27T23:21:35.612Z,6.00
2017-07-27T23:24:03.891Z,6.00
2017-07-27T23:26:32.155Z,6.00
2017-07-27T23:29:00.443Z,6.43
2017-07-27T23:31:27.947Z,6.23
2017-07-27T23:33:55.455Z,5.77
2017-07-27T23:36:22.963Z,6.60
2017-07-27T23:38:50.483Z,6.83
2017-07-27T23:41:18.743Z,5.63
2017-07-27T23:43:47.015Z,6.10
2017-07-27T23:46:14.531Z,5.50
2017-07-27T23:48:42.030Z,6.17
2017-07-27T23:51:10.318Z,6.63
2017-07-27T23:53:38.587Z,6.30
2017-07-27T23:56:06.871Z,6.40
2017-07-27T23:58:35.143Z,6.53
